createdAt,value
2018-01-06T00:01:32.136Z,8.57
2018-01-06T00:02:32.133Z,8.62
2018-01-06T00:04:25.538Z,8.58
2018-01-06T00:05:25.523Z,8.57
2018-01-06T00:07:18.908Z,8.55
2018-01-06T00:08:18.918Z,8.51
2018-01-06T00:10:12.339Z,8.51
2018-01-06T00:11:12.313Z,8.55
2018-01-06T00:13:05.738Z,8.55
2018-01-06T00:14:05.730Z,8.57
2018-01-06T00:15:59.127Z,8.60
2018-01-06T00:16:59.111Z,8.51
2018-01-06T00:18:52.502Z,8.60
2018-01-06T00:19:52.506Z,8.55
2018-01-06T00:21:45.943Z,8.55
2018-01-06T00:22:45.921Z,8.51
2018-01-06T00:24:39.287Z,8.50
2018-01-06T00:25:39.296Z,8.44
2018-01-06T00:27:32.728Z,8.37
2018-01-06T00:28:32.704Z,8.54
2018-01-06T00:30:26.182Z,8.51
2018-01-06T00:31:26.136Z,8.42
2018-01-06T00:33:19.475Z,8.37
2018-01-06T00:34:19.479Z,8.37
2018-01-06T00:36:12.894Z,8.39
2018-01-06T00:37:12.865Z,8.36
2018-01-06T00:39:06.310Z,8.39
2018-01-06T00:40:06.296Z,8.37
2018-01-06T00:41:59.677Z,8.37
2018-01-06T00:42:59.662Z,8.39
2018-01-06T00:44:53.049Z,8.39
2018-01-06T00:45:53.054Z,8.39
2018-01-06T00:47:46.477Z,8.50
2018-01-06T00:48:46.441Z,8.55
2018-01-06T00:50:39.833Z,8.57
2018-01-06T00:51:39.833Z,8.55
2018-01-06T00:53:33.247Z,8.51
2018-01-06T00:54:33.239Z,8.51
2018-01-06T00:56:26.617Z,8.42
2018-01-06T00:57:26.622Z,8.39
2018-01-06T00:59:20.024Z,8.36
2018-01-06T01:00:20.017Z,8.33
2018-01-06T01:02:13.395Z,8.36
2018-01-06T01:03:13.398Z,8.30
2018-01-06T01:05:06.816Z,8.39
2018-01-06T01:06:06.798Z,8.40
2018-01-06T01:08:00.186Z,8.54
2018-01-06T01:09:00.192Z,8.50
2018-01-06T01:10:53.595Z,8.39
2018-01-06T01:11:53.584Z,8.37
2018-01-06T01:13:46.967Z,8.48
2018-01-06T01:14:46.969Z,8.30
2018-01-06T01:16:40.379Z,8.39
2018-01-06T01:17:40.360Z,8.42
2018-01-06T01:19:33.746Z,8.47
2018-01-06T01:20:33.756Z,8.51
2018-01-06T01:22:27.174Z,8.48
2018-01-06T01:23:27.141Z,8.50
2018-01-06T01:25:20.527Z,8.35
2018-01-06T01:26:20.527Z,8.42
2018-01-06T01:28:13.936Z,8.35
2018-01-06T01:29:13.920Z,8.48
2018-01-06T01:31:07.304Z,8.40
2018-01-06T01:32:07.308Z,8.37
2018-01-06T01:34:00.719Z,8.35
2018-01-06T01:35:00.697Z,8.39
2018-01-06T01:36:54.156Z,8.37
2018-01-06T01:37:54.134Z,8.35
2018-01-06T01:39:47.541Z,8.39
2018-01-06T01:40:47.536Z,8.33
2018-01-06T01:42:40.938Z,8.35
2018-01-06T01:43:40.926Z,8.33
2018-01-06T01:45:34.336Z,8.30
2018-01-06T01:46:34.334Z,8.32
2018-01-06T01:48:27.707Z,8.39
2018-01-06T01:49:27.712Z,8.37
2018-01-06T01:51:21.118Z,8.40
2018-01-06T01:52:21.100Z,8.39
2018-01-06T01:54:14.490Z,8.40
2018-01-06T01:55:14.497Z,8.37
2018-01-06T01:57:08.903Z,8.35
2018-01-06T01:58:08.879Z,8.30
2018-01-06T02:00:02.274Z,8.33
2018-01-06T02:01:02.281Z,8.35
2018-01-06T02:02:55.682Z,8.35
2018-01-06T02:03:55.674Z,8.37
2018-01-06T02:05:49.056Z,8.20
2018-01-06T02:06:49.058Z,8.26
2018-01-06T02:08:42.470Z,8.21
2018-01-06T02:09:42.456Z,8.32
2018-01-06T02:11:35.877Z,8.25
2018-01-06T02:12:35.848Z,8.26
2018-01-06T02:14:29.235Z,8.17
2018-01-06T02:15:29.238Z,8.02
2018-01-06T02:17:22.640Z,8.10
2018-01-06T02:18:22.626Z,8.02
2018-01-06T02:20:16.010Z,8.11
2018-01-06T02:21:16.035Z,8.04
2018-01-06T02:23:09.418Z,8.11
2018-01-06T02:24:09.413Z,8.03
2018-01-06T02:26:02.815Z,8.04
2018-01-06T02:27:02.806Z,8.03
2018-01-06T02:28:56.207Z,8.02
2018-01-06T02:29:56.201Z,8.07
2018-01-06T02:31:49.597Z,8.00
2018-01-06T02:32:49.603Z,8.02
2018-01-06T02:34:42.986Z,8.04
2018-01-06T02:35:42.988Z,8.11
2018-01-06T02:37:36.381Z,8.17
2018-01-06T02:38:36.379Z,8.17
2018-01-06T02:40:29.791Z,8.17
2018-01-06T02:41:29.764Z,8.17
2018-01-06T02:43:23.212Z,8.25
2018-01-06T02:44:23.166Z,8.18
2018-01-06T02:46:16.589Z,8.10
2018-01-06T02:47:16.576Z,8.07
2018-01-06T02:49:09.997Z,8.08
2018-01-06T02:50:09.980Z,8.14
2018-01-06T02:52:03.355Z,8.08
2018-01-06T02:53:03.354Z,8.04
2018-01-06T02:54:56.769Z,8.07
2018-01-06T02:55:56.751Z,8.14
2018-01-06T02:57:50.136Z,8.15
2018-01-06T02:58:50.154Z,8.17
2018-01-06T03:00:43.574Z,8.26
2018-01-06T03:01:43.559Z,8.26
2018-01-06T03:03:36.942Z,8.33
2018-01-06T03:04:36.936Z,8.25
2018-01-06T03:06:30.347Z,8.26
2018-01-06T03:07:30.333Z,8.26
2018-01-06T03:09:23.716Z,8.21
2018-01-06T03:10:23.728Z,8.21
2018-01-06T03:12:17.134Z,8.22
2018-01-06T03:13:17.114Z,8.29
2018-01-06T03:15:10.533Z,8.10
2018-01-06T03:16:10.535Z,8.04
2018-01-06T03:18:03.915Z,8.11
2018-01-06T03:19:03.906Z,8.00
2018-01-06T03:20:57.289Z,7.97
2018-01-06T03:21:57.290Z,8.07
2018-01-06T03:23:50.737Z,8.15
2018-01-06T03:24:50.692Z,8.22
2018-01-06T03:26:44.091Z,8.15
2018-01-06T03:27:44.092Z,8.11
2018-01-06T03:29:37.484Z,7.94
2018-01-06T03:30:37.491Z,8.00
2018-01-06T03:32:30.871Z,8.03
2018-01-06T03:33:30.872Z,8.00
2018-01-06T03:35:24.299Z,8.02
2018-01-06T03:36:24.254Z,8.04
2018-01-06T03:38:25.277Z,8.03
2018-01-06T03:39:17.646Z,7.97
2018-01-06T03:41:11.052Z,8.12
2018-01-06T03:42:11.035Z,8.20
2018-01-06T03:44:04.419Z,8.17
2018-01-06T03:45:04.426Z,8.25
2018-01-06T03:46:57.838Z,8.22
2018-01-06T03:47:57.817Z,8.26
2018-01-06T03:49:51.198Z,8.26
2018-01-06T03:50:51.209Z,8.26
2018-01-06T03:52:44.606Z,8.20
2018-01-06T03:53:44.589Z,8.14
2018-01-06T03:55:37.985Z,8.11
2018-01-06T03:56:37.978Z,8.08
2018-01-06T03:58:31.387Z,8.20
2018-01-06T03:59:31.369Z,8.00
2018-01-06T04:01:24.768Z,8.04
2018-01-06T04:02:24.755Z,8.04
2018-01-06T04:04:18.158Z,8.15
2018-01-06T04:05:18.144Z,8.03
2018-01-06T04:07:11.531Z,8.14
2018-01-06T04:08:11.535Z,8.12
2018-01-06T04:10:04.940Z,8.14
2018-01-06T04:11:04.930Z,8.17
2018-01-06T04:12:58.307Z,8.17
2018-01-06T04:13:58.321Z,8.15
2018-01-06T04:15:51.717Z,8.14
2018-01-06T04:16:51.716Z,8.08
2018-01-06T04:18:45.097Z,8.03
2018-01-06T04:19:45.101Z,8.03
2018-01-06T04:21:38.506Z,8.18
2018-01-06T04:22:38.492Z,8.12
2018-01-06T04:24:31.880Z,8.15
2018-01-06T04:25:31.881Z,8.17
2018-01-06T04:27:25.287Z,8.11
2018-01-06T04:28:25.295Z,8.11
2018-01-06T04:30:18.664Z,8.15
2018-01-06T04:31:18.670Z,8.14
2018-01-06T04:33:12.070Z,8.20
2018-01-06T04:34:12.055Z,8.12
2018-01-06T04:36:05.435Z,8.15
2018-01-06T04:37:05.450Z,8.07
2018-01-06T04:38:58.844Z,8.03
2018-01-06T04:39:58.833Z,8.14
2018-01-06T04:41:52.223Z,8.12
2018-01-06T04:42:52.239Z,8.12
2018-01-06T04:44:45.623Z,8.11
2018-01-06T04:45:45.609Z,8.11
2018-01-06T04:47:38.991Z,8.11
2018-01-06T04:48:38.997Z,8.04
2018-01-06T04:50:32.402Z,8.15
2018-01-06T04:51:32.387Z,8.12
2018-01-06T04:53:25.778Z,8.18
2018-01-06T04:54:25.783Z,8.14
2018-01-06T04:56:19.190Z,8.28
2018-01-06T04:57:19.173Z,8.17
2018-01-06T04:59:12.576Z,8.26
2018-01-06T05:00:12.562Z,8.26
2018-01-06T05:02:05.948Z,8.20
2018-01-06T05:03:05.950Z,8.29
2018-01-06T05:04:59.356Z,8.26
2018-01-06T05:05:59.348Z,8.20
2018-01-06T05:07:52.738Z,8.22
2018-01-06T05:08:52.740Z,8.21
2018-01-06T05:10:46.146Z,8.21
2018-01-06T05:11:46.131Z,8.25
2018-01-06T05:13:39.515Z,8.22
2018-01-06T05:14:39.519Z,8.21
2018-01-06T05:16:32.920Z,8.26
2018-01-06T05:17:32.908Z,8.14
2018-01-06T05:19:26.305Z,8.18
2018-01-06T05:20:26.299Z,8.15
2018-01-06T05:22:19.729Z,8.17
2018-01-06T05:23:19.684Z,8.14
2018-01-06T05:25:13.070Z,8.20
2018-01-06T05:26:13.077Z,8.20
2018-01-06T05:28:06.580Z,8.12
2018-01-06T05:29:06.474Z,8.12
2018-01-06T05:30:59.861Z,8.12
2018-01-06T05:31:59.867Z,8.14
2018-01-06T05:33:54.267Z,8.12
2018-01-06T05:34:54.253Z,8.11
2018-01-06T05:36:47.641Z,8.10
2018-01-06T05:37:47.643Z,8.08
2018-01-06T05:39:41.049Z,8.08
2018-01-06T05:40:41.032Z,8.08
2018-01-06T05:42:34.416Z,8.14
2018-01-06T05:43:34.421Z,8.15
2018-01-06T05:45:27.823Z,8.11
2018-01-06T05:46:27.810Z,8.10
2018-01-06T05:48:21.195Z,8.17
2018-01-06T05:49:21.198Z,8.02
2018-01-06T05:51:14.603Z,8.14
2018-01-06T05:52:14.587Z,8.04
2018-01-06T05:54:07.971Z,8.04
2018-01-06T05:55:07.977Z,8.08
2018-01-06T05:57:01.382Z,8.08
2018-01-06T05:58:01.366Z,8.10
2018-01-06T05:59:54.759Z,8.08
2018-01-06T06:00:54.770Z,8.02
2018-01-06T06:02:48.157Z,7.97
2018-01-06T06:03:48.143Z,7.90
2018-01-06T06:05:41.542Z,7.94
2018-01-06T06:06:41.541Z,7.93
2018-01-06T06:08:34.947Z,7.90
2018-01-06T06:09:34.936Z,7.85
2018-01-06T06:11:28.355Z,7.84
2018-01-06T06:12:28.323Z,7.84
2018-01-06T06:14:21.706Z,7.85
2018-01-06T06:15:21.710Z,7.85
2018-01-06T06:17:15.112Z,7.92
2018-01-06T06:18:15.101Z,7.81
2018-01-06T06:20:08.488Z,7.90
2018-01-06T06:21:08.491Z,7.82
2018-01-06T06:23:01.894Z,8.03
2018-01-06T06:24:01.881Z,7.93
2018-01-06T06:25:55.259Z,7.87
2018-01-06T06:26:55.272Z,7.85
2018-01-06T06:28:48.672Z,7.85
2018-01-06T06:29:48.651Z,7.85
2018-01-06T06:31:42.038Z,7.87
2018-01-06T06:32:42.044Z,7.84
2018-01-06T06:34:35.499Z,7.81
2018-01-06T06:35:35.430Z,7.85
2018-01-06T06:37:28.823Z,7.84
2018-01-06T06:38:28.820Z,7.78
2018-01-06T06:40:22.311Z,7.79
2018-01-06T06:41:22.296Z,7.78
2018-01-06T06:43:15.684Z,7.75
2018-01-06T06:44:15.684Z,7.75
2018-01-06T06:46:09.089Z,7.67
2018-01-06T06:47:09.075Z,7.72
2018-01-06T06:49:02.458Z,7.67
2018-01-06T06:50:02.462Z,7.66
2018-01-06T06:51:55.911Z,7.62
2018-01-06T06:52:55.864Z,7.56
2018-01-06T06:54:49.243Z,7.55
2018-01-06T06:55:49.241Z,7.53
2018-01-06T06:57:42.643Z,7.40
2018-01-06T06:58:42.786Z,7.44
2018-01-06T07:00:36.020Z,7.44
2018-01-06T07:01:36.026Z,7.35
2018-01-06T07:03:29.425Z,7.23
2018-01-06T07:04:29.405Z,7.23
2018-01-06T07:06:22.794Z,7.13
2018-01-06T07:07:22.800Z,7.04
2018-01-06T07:09:16.202Z,6.97
2018-01-06T07:10:16.186Z,6.94
2018-01-06T07:12:09.586Z,6.65
2018-01-06T07:13:09.577Z,6.56
2018-01-06T07:15:02.975Z,6.53
2018-01-06T07:16:02.960Z,6.56
2018-01-06T07:17:56.348Z,6.62
2018-01-06T07:18:56.348Z,6.65
2018-01-06T07:20:49.761Z,6.47
2018-01-06T07:21:49.739Z,6.50
2018-01-06T07:23:43.122Z,6.44
2018-01-06T07:24:43.127Z,6.30
2018-01-06T07:26:36.532Z,6.44
2018-01-06T07:27:36.516Z,6.32
2018-01-06T07:29:29.929Z,6.47
2018-01-06T07:30:29.899Z,6.43
2018-01-06T07:32:23.286Z,6.43
2018-01-06T07:33:23.300Z,6.41
2018-01-06T07:35:16.710Z,6.28
2018-01-06T07:36:16.675Z,6.28
2018-01-06T07:38:10.061Z,6.07
2018-01-06T07:39:10.081Z,6.11
2018-01-06T07:41:03.467Z,6.06
2018-01-06T07:42:03.449Z,6.00
2018-01-06T07:43:56.842Z,6.16
2018-01-06T07:44:56.846Z,6.14
2018-01-06T07:46:50.290Z,6.19
2018-01-06T07:47:50.278Z,6.22
2018-01-06T07:49:43.669Z,6.26
2018-01-06T07:50:43.672Z,6.21
2018-01-06T07:52:37.073Z,6.22
2018-01-06T07:53:37.062Z,6.25
2018-01-06T07:55:30.444Z,6.07
2018-01-06T07:56:30.448Z,6.13
2018-01-06T07:58:23.858Z,6.07
2018-01-06T07:59:23.842Z,6.01
2018-01-06T08:01:17.238Z,6.30
2018-01-06T08:02:17.229Z,6.25
2018-01-06T08:04:10.631Z,6.07
2018-01-06T08:05:10.617Z,6.07
2018-01-06T08:07:04.001Z,6.09
2018-01-06T08:08:04.004Z,6.07
2018-01-06T08:09:57.405Z,6.14
2018-01-06T08:10:57.502Z,6.22
2018-01-06T08:12:50.775Z,6.28
2018-01-06T08:13:50.776Z,6.30
2018-01-06T08:15:44.178Z,6.25
2018-01-06T08:16:44.163Z,6.28
2018-01-06T08:18:37.564Z,6.10
2018-01-06T08:19:37.570Z,6.22
2018-01-06T08:21:30.981Z,6.19
2018-01-06T08:22:30.963Z,6.25
2018-01-06T08:24:24.378Z,6.28
2018-01-06T08:25:24.352Z,6.18
2018-01-06T08:27:17.760Z,6.30
2018-01-06T08:28:17.755Z,6.25
2018-01-06T08:30:11.180Z,6.30
2018-01-06T08:31:11.136Z,6.28
2018-01-06T08:33:04.547Z,6.43
2018-01-06T08:34:04.564Z,6.48
2018-01-06T08:35:57.954Z,6.54
2018-01-06T08:36:57.948Z,6.47
2018-01-06T08:38:51.329Z,6.56
2018-01-06T08:39:51.328Z,6.58
2018-01-06T08:41:44.740Z,6.63
2018-01-06T08:42:44.727Z,6.61
2018-01-06T08:44:38.108Z,6.71
2018-01-06T08:45:38.111Z,6.72
2018-01-06T08:47:31.529Z,6.83
2018-01-06T08:48:31.521Z,6.90
2018-01-06T08:50:24.901Z,6.95
2018-01-06T08:51:24.904Z,6.97
2018-01-06T08:53:18.300Z,7.07
2018-01-06T08:54:18.285Z,7.20
2018-01-06T08:56:11.668Z,7.22
2018-01-06T08:57:11.673Z,7.27
2018-01-06T08:59:05.072Z,7.24
2018-01-06T09:00:05.060Z,7.23
2018-01-06T09:01:58.445Z,7.29
2018-01-06T09:02:58.443Z,7.41
2018-01-06T09:04:51.845Z,7.45
2018-01-06T09:05:51.830Z,7.45
2018-01-06T09:07:45.266Z,7.52
2018-01-06T09:08:45.268Z,7.55
2018-01-06T09:10:38.667Z,7.63
2018-01-06T09:11:38.654Z,7.67
2018-01-06T09:13:33.039Z,7.67
2018-01-06T09:14:33.052Z,7.77
2018-01-06T09:16:26.449Z,7.85
2018-01-06T09:17:26.432Z,7.79
2018-01-06T09:19:19.813Z,7.92
2018-01-06T09:20:19.818Z,8.00
2018-01-06T09:22:13.219Z,8.07
2018-01-06T09:23:13.215Z,8.33
2018-01-06T09:25:06.586Z,8.78
2018-01-06T09:26:06.590Z,8.78
2018-01-06T09:27:59.991Z,9.38
2018-01-06T09:28:59.976Z,10.10
2018-01-06T09:30:53.372Z,11.78
2018-01-06T09:31:53.376Z,12.59
2018-01-06T09:33:46.789Z,13.07
2018-01-06T09:34:46.777Z,13.03
2018-01-06T09:36:40.160Z,13.99
2018-01-06T09:37:40.162Z,14.25
2018-01-06T09:39:33.566Z,15.19
2018-01-06T09:40:33.553Z,15.17
2018-01-06T09:42:26.940Z,14.86
2018-01-06T09:43:26.947Z,15.38
2018-01-06T09:45:20.358Z,15.42
2018-01-06T09:46:20.347Z,15.86
2018-01-06T09:48:13.743Z,15.89
2018-01-06T09:49:13.739Z,16.30
2018-01-06T09:51:07.159Z,17.11
2018-01-06T09:52:07.146Z,17.04
2018-01-06T09:54:00.537Z,16.93
2018-01-06T09:55:00.543Z,16.18
2018-01-06T09:56:53.958Z,15.99
2018-01-06T09:57:53.949Z,15.68
2018-01-06T09:59:47.341Z,15.09
2018-01-06T10:00:47.348Z,14.65
2018-01-06T10:02:40.759Z,13.12
2018-01-06T10:03:40.765Z,12.44
2018-01-06T10:05:34.154Z,11.72
2018-01-06T10:06:34.139Z,11.52
2018-01-06T10:08:27.548Z,11.20
2018-01-06T10:09:27.536Z,10.95
2018-01-06T10:11:20.962Z,10.78
2018-01-06T10:12:20.932Z,10.71
2018-01-06T10:14:14.330Z,10.62
2018-01-06T10:15:14.338Z,10.84
2018-01-06T10:17:07.756Z,11.03
2018-01-06T10:18:07.735Z,11.17
2018-01-06T10:20:01.139Z,11.52
2018-01-06T10:21:01.137Z,11.70
2018-01-06T10:22:54.555Z,11.61
2018-01-06T10:23:54.531Z,11.39
2018-01-06T10:25:47.928Z,11.31
2018-01-06T10:26:47.954Z,11.52
2018-01-06T10:28:41.352Z,11.59
2018-01-06T10:29:41.336Z,11.86
2018-01-06T10:31:34.722Z,12.09
2018-01-06T10:32:34.729Z,11.89
2018-01-06T10:34:28.142Z,11.71
2018-01-06T10:35:28.125Z,11.54
2018-01-06T10:37:21.019Z,11.44
2018-01-06T10:38:21.024Z,11.39
2018-01-06T10:40:14.445Z,11.24
2018-01-06T10:41:14.418Z,11.16
2018-01-06T10:43:07.805Z,11.20
2018-01-06T10:44:07.810Z,11.39
2018-01-06T10:46:01.216Z,11.64
2018-01-06T10:47:01.206Z,12.13
2018-01-06T10:48:54.607Z,12.95
2018-01-06T10:49:54.610Z,13.54
2018-01-06T10:51:48.022Z,15.11
2018-01-06T10:52:48.008Z,15.79
2018-01-06T10:54:41.397Z,16.07
2018-01-06T10:55:41.403Z,16.09
2018-01-06T10:57:34.813Z,17.47
2018-01-06T10:58:34.820Z,18.04
2018-01-06T11:00:28.195Z,18.17
2018-01-06T11:01:28.198Z,18.28
2018-01-06T11:03:21.610Z,19.10
2018-01-06T11:04:21.601Z,18.94
2018-01-06T11:06:14.996Z,18.73
2018-01-06T11:07:15.009Z,18.83
2018-01-06T11:09:08.418Z,18.87
2018-01-06T11:10:08.409Z,19.42
2018-01-06T11:12:01.819Z,17.44
2018-01-06T11:13:01.828Z,18.40
2018-01-06T11:14:55.288Z,19.48
2018-01-06T11:15:55.280Z,19.24
2018-01-06T11:17:48.848Z,19.23
2018-01-06T11:18:48.687Z,19.38
2018-01-06T11:20:42.091Z,18.17
2018-01-06T11:21:42.100Z,17.11
2018-01-06T11:23:35.513Z,17.47
2018-01-06T11:24:35.506Z,17.46
2018-01-06T11:26:28.903Z,17.13
2018-01-06T11:27:28.915Z,17.54
2018-01-06T11:29:22.337Z,17.79
2018-01-06T11:30:22.326Z,18.12
2018-01-06T11:32:15.725Z,17.67
2018-01-06T11:33:15.738Z,17.79
2018-01-06T11:35:09.156Z,17.71
2018-01-06T11:36:09.163Z,18.09
2018-01-06T11:38:02.549Z,19.15
2018-01-06T11:39:02.568Z,19.28
2018-01-06T11:40:55.988Z,18.12
2018-01-06T11:41:55.979Z,17.35
2018-01-06T11:43:49.378Z,17.51
2018-01-06T11:44:49.391Z,16.75
2018-01-06T11:46:42.808Z,16.27
2018-01-06T11:47:42.818Z,15.88
2018-01-06T11:49:36.201Z,16.11
2018-01-06T11:50:36.215Z,16.11
2018-01-06T11:52:29.630Z,15.70
2018-01-06T11:53:29.623Z,15.59
2018-01-06T11:55:24.058Z,14.57
2018-01-06T11:56:24.033Z,14.72
2018-01-06T11:58:17.434Z,15.68
2018-01-06T11:59:17.443Z,16.07
2018-01-06T12:01:10.869Z,16.52
2018-01-06T12:02:10.861Z,16.25
2018-01-06T12:04:04.266Z,15.92
2018-01-06T12:05:04.267Z,15.03
2018-01-06T12:06:57.188Z,15.06
2018-01-06T12:07:57.197Z,14.52
2018-01-06T12:09:50.593Z,14.64
2018-01-06T12:10:50.597Z,14.32
2018-01-06T12:12:44.016Z,14.17
2018-01-06T12:13:44.010Z,14.27
2018-01-06T12:15:37.401Z,14.25
2018-01-06T12:16:37.455Z,13.76
2018-01-06T12:18:30.828Z,13.79
2018-01-06T12:19:30.817Z,13.99
2018-01-06T12:21:24.246Z,13.99
2018-01-06T12:22:24.224Z,14.28
2018-01-06T12:24:17.622Z,14.16
2018-01-06T12:25:17.639Z,14.28
2018-01-06T12:27:11.065Z,13.36
2018-01-06T12:28:11.039Z,13.27
2018-01-06T12:30:04.434Z,13.09
2018-01-06T12:31:04.441Z,12.92
2018-01-06T12:32:57.864Z,12.88
2018-01-06T12:33:57.846Z,12.78
2018-01-06T12:35:51.277Z,12.88
2018-01-06T12:36:51.286Z,12.89
2018-01-06T12:38:44.697Z,12.44
2018-01-06T12:39:44.704Z,12.60
2018-01-06T12:41:37.591Z,12.81
2018-01-06T12:42:37.598Z,13.00
2018-01-06T12:44:31.013Z,13.25
2018-01-06T12:45:30.999Z,13.27
2018-01-06T12:47:24.404Z,13.40
2018-01-06T12:48:24.421Z,13.41
2018-01-06T12:50:17.824Z,13.41
2018-01-06T12:51:17.814Z,13.67
2018-01-06T12:53:11.308Z,13.52
2018-01-06T12:54:11.308Z,13.32
2018-01-06T12:56:04.722Z,12.87
2018-01-06T12:57:04.720Z,12.70
2018-01-06T12:58:58.104Z,12.41
2018-01-06T12:59:58.165Z,12.38
2018-01-06T13:01:51.523Z,12.11
2018-01-06T13:02:51.510Z,12.05
2018-01-06T13:04:44.902Z,12.08
2018-01-06T13:05:44.912Z,11.86
2018-01-06T13:07:38.350Z,11.99
2018-01-06T13:08:38.339Z,11.99
2018-01-06T13:10:31.739Z,12.23
2018-01-06T13:11:31.741Z,12.39
2018-01-06T13:13:25.182Z,12.62
2018-01-06T13:14:25.136Z,12.70
2018-01-06T13:16:18.531Z,12.82
2018-01-06T13:17:18.539Z,12.95
2018-01-06T13:19:11.946Z,12.92
2018-01-06T13:20:11.937Z,12.87
2018-01-06T13:22:05.336Z,12.92
2018-01-06T13:23:05.343Z,12.89
2018-01-06T13:24:58.754Z,12.87
2018-01-06T13:25:58.743Z,12.87
2018-01-06T13:27:52.137Z,12.70
2018-01-06T13:28:52.151Z,12.52
2018-01-06T13:30:45.571Z,12.38
2018-01-06T13:31:45.554Z,12.27
2018-01-06T13:33:38.973Z,12.11
2018-01-06T13:34:38.955Z,12.05
2018-01-06T13:36:31.846Z,12.01
2018-01-06T13:37:31.855Z,11.89
2018-01-06T13:39:24.772Z,11.93
2018-01-06T13:40:24.759Z,11.89
2018-01-06T13:42:17.659Z,12.05
2018-01-06T13:43:17.666Z,11.99
2018-01-06T13:45:10.590Z,12.06
2018-01-06T13:46:10.567Z,12.08
2018-01-06T13:48:03.461Z,11.99
2018-01-06T13:49:03.466Z,12.01
2018-01-06T13:50:56.378Z,12.09
2018-01-06T13:51:56.366Z,12.05
2018-01-06T13:53:49.262Z,12.16
2018-01-06T13:54:49.266Z,12.23
2018-01-06T13:56:42.180Z,12.09
2018-01-06T13:57:42.167Z,12.06
2018-01-06T13:59:35.068Z,12.13
2018-01-06T14:00:35.097Z,12.06
2018-01-06T14:02:28.001Z,12.05
2018-01-06T14:03:27.975Z,11.99
2018-01-06T14:05:20.868Z,11.87
2018-01-06T14:06:20.873Z,11.90
2018-01-06T14:08:13.785Z,11.71
2018-01-06T14:09:13.782Z,11.68
2018-01-06T14:11:06.670Z,11.54
2018-01-06T14:12:06.676Z,11.47
2018-01-06T14:13:59.612Z,11.67
2018-01-06T14:14:59.583Z,11.67
2018-01-06T14:16:52.478Z,11.52
2018-01-06T14:17:52.481Z,11.43
2018-01-06T14:19:45.397Z,11.47
2018-01-06T14:20:45.382Z,11.47
2018-01-06T14:22:38.278Z,11.50
2018-01-06T14:23:38.279Z,11.47
2018-01-06T14:25:31.191Z,11.36
2018-01-06T14:26:31.181Z,11.32
2018-01-06T14:28:24.074Z,11.17
2018-01-06T14:29:24.085Z,11.13
2018-01-06T14:31:16.996Z,11.35
2018-01-06T14:32:16.982Z,11.20
2018-01-06T14:34:09.879Z,11.14
2018-01-06T14:35:09.884Z,11.11
2018-01-06T14:37:02.799Z,11.14
2018-01-06T14:38:02.786Z,11.21
2018-01-06T14:39:55.679Z,11.24
2018-01-06T14:40:55.683Z,11.17
2018-01-06T14:42:48.596Z,11.11
2018-01-06T14:43:48.586Z,11.09
2018-01-06T14:45:41.484Z,10.98
2018-01-06T14:46:41.493Z,11.11
2018-01-06T14:48:34.401Z,10.95
2018-01-06T14:49:34.384Z,10.83
2018-01-06T14:51:27.278Z,10.88
2018-01-06T14:52:27.294Z,10.78
2018-01-06T14:54:20.193Z,10.83
2018-01-06T14:55:20.179Z,10.80
2018-01-06T14:57:13.575Z,10.66
2018-01-06T14:58:13.580Z,10.62
2018-01-06T15:00:06.989Z,10.58
2018-01-06T15:01:06.975Z,10.53
2018-01-06T15:02:59.872Z,10.40
2018-01-06T15:03:59.872Z,10.42
2018-01-06T15:05:52.786Z,10.26
2018-01-06T15:06:52.774Z,10.36
2018-01-06T15:08:45.670Z,10.21
2018-01-06T15:09:45.673Z,10.12
2018-01-06T15:11:39.099Z,10.17
2018-01-06T15:12:39.077Z,10.19
2018-01-06T15:14:32.008Z,10.04
2018-01-06T15:15:31.972Z,9.91
2018-01-06T15:17:25.359Z,9.94
2018-01-06T15:18:25.362Z,10.00
2018-01-06T15:20:18.287Z,10.03
2018-01-06T15:21:18.260Z,10.06
2018-01-06T15:23:11.156Z,10.04
2018-01-06T15:24:11.159Z,10.14
2018-01-06T15:26:04.081Z,10.18
2018-01-06T15:27:04.058Z,10.15
2018-01-06T15:28:56.953Z,10.06
2018-01-06T15:29:56.956Z,9.97
2018-01-06T15:31:49.872Z,9.99
2018-01-06T15:32:49.858Z,9.97
2018-01-06T15:34:42.769Z,9.89
2018-01-06T15:35:42.753Z,9.88
2018-01-06T15:37:35.648Z,9.79
2018-01-06T15:38:35.655Z,9.78
2018-01-06T15:40:29.060Z,9.79
2018-01-06T15:41:29.044Z,9.73
2018-01-06T15:43:21.944Z,9.71
2018-01-06T15:44:21.942Z,9.70
2018-01-06T15:46:15.355Z,9.64
2018-01-06T15:47:15.342Z,9.71
2018-01-06T15:49:08.748Z,9.61
2018-01-06T15:50:08.731Z,9.56
2018-01-06T15:52:02.129Z,9.57
2018-01-06T15:53:02.168Z,9.56
2018-01-06T15:54:55.044Z,9.43
2018-01-06T15:55:55.031Z,9.43
2018-01-06T15:57:47.920Z,9.30
2018-01-06T15:58:47.924Z,8.96
2018-01-06T16:00:41.327Z,8.93
2018-01-06T16:01:41.315Z,8.84
2018-01-06T16:03:34.700Z,8.94
2018-01-06T16:04:34.706Z,8.87
2018-01-06T16:06:28.110Z,8.94
2018-01-06T16:07:28.093Z,9.02
2018-01-06T16:09:21.003Z,8.97
2018-01-06T16:10:20.987Z,8.94
2018-01-06T16:12:14.419Z,8.94
2018-01-06T16:13:14.406Z,8.94
2018-01-06T16:15:07.825Z,9.02
2018-01-06T16:16:07.807Z,8.96
2018-01-06T16:18:00.701Z,8.79
2018-01-06T16:19:00.702Z,8.83
2018-01-06T16:20:53.616Z,8.86
2018-01-06T16:21:53.597Z,8.79
2018-01-06T16:23:46.492Z,8.62
2018-01-06T16:24:46.495Z,8.48
2018-01-06T16:26:39.953Z,8.17
2018-01-06T16:27:39.900Z,8.21
2018-01-06T16:29:32.787Z,8.17
2018-01-06T16:30:32.789Z,8.07
2018-01-06T16:32:25.698Z,8.00
2018-01-06T16:33:25.683Z,7.89
2018-01-06T16:35:19.087Z,7.77
2018-01-06T16:36:19.071Z,7.71
2018-01-06T16:38:11.963Z,7.71
2018-01-06T16:39:11.964Z,7.78
2018-01-06T16:41:05.368Z,7.63
2018-01-06T16:42:05.354Z,7.59
2018-01-06T16:43:58.738Z,7.44
2018-01-06T16:44:58.744Z,7.41
2018-01-06T16:46:51.660Z,7.23
2018-01-06T16:47:51.645Z,7.22
2018-01-06T16:49:45.031Z,7.42
2018-01-06T16:50:45.033Z,7.23
2018-01-06T16:52:38.439Z,7.45
2018-01-06T16:53:38.421Z,7.45
2018-01-06T16:55:31.336Z,7.35
2018-01-06T16:56:31.320Z,7.32
2018-01-06T16:58:24.712Z,7.44
2018-01-06T16:59:24.719Z,7.42
2018-01-06T17:01:18.130Z,7.58
2018-01-06T17:02:18.116Z,7.58
2018-01-06T17:04:11.499Z,7.50
2018-01-06T17:05:11.502Z,7.32
2018-01-06T17:07:04.417Z,7.15
2018-01-06T17:08:04.396Z,7.04
2018-01-06T17:09:57.286Z,6.90
2018-01-06T17:10:57.290Z,6.89
2018-01-06T17:12:50.200Z,6.81
2018-01-06T17:13:50.182Z,6.86
2018-01-06T17:15:43.094Z,7.05
2018-01-06T17:16:43.074Z,6.98
2018-01-06T17:18:36.459Z,6.87
2018-01-06T17:19:36.460Z,6.87
2018-01-06T17:21:29.877Z,6.97
2018-01-06T17:22:29.861Z,6.97
2018-01-06T17:24:22.753Z,6.81
2018-01-06T17:25:22.753Z,6.61
2018-01-06T17:27:16.157Z,6.47
2018-01-06T17:28:16.139Z,6.35
2018-01-06T17:30:09.540Z,6.30
2018-01-06T17:31:09.540Z,6.33
2018-01-06T17:33:03.016Z,6.50
2018-01-06T17:34:02.929Z,6.59
2018-01-06T17:35:56.313Z,6.53
2018-01-06T17:36:56.316Z,6.54
2018-01-06T17:38:50.729Z,6.51
2018-01-06T17:39:50.717Z,6.47
2018-01-06T17:41:44.127Z,6.61
2018-01-06T17:42:44.110Z,6.69
2018-01-06T17:44:37.005Z,6.69
2018-01-06T17:45:37.008Z,6.68
2018-01-06T17:47:29.916Z,6.87
2018-01-06T17:48:29.898Z,6.84
2018-01-06T17:50:23.292Z,6.84
2018-01-06T17:51:23.294Z,6.81
2018-01-06T17:53:16.707Z,6.94
2018-01-06T17:54:16.690Z,7.01
2018-01-06T17:56:10.076Z,7.15
2018-01-06T17:57:10.081Z,7.08
2018-01-06T17:59:03.484Z,7.07
2018-01-06T18:00:03.467Z,7.01
2018-01-06T18:01:56.873Z,6.83
2018-01-06T18:02:56.855Z,6.86
2018-01-06T18:04:50.299Z,6.73
2018-01-06T18:05:50.272Z,6.80
2018-01-06T18:07:43.180Z,6.76
2018-01-06T18:08:43.166Z,6.68
2018-01-06T18:10:36.090Z,6.80
2018-01-06T18:11:37.116Z,6.86
2018-01-06T18:13:29.579Z,6.91
2018-01-06T18:14:29.566Z,6.83
2018-01-06T18:16:22.448Z,6.90
2018-01-06T18:17:22.455Z,6.99
2018-01-06T18:19:15.361Z,6.86
2018-01-06T18:20:15.367Z,6.84
2018-01-06T18:22:08.253Z,6.83
2018-01-06T18:23:08.237Z,6.89
2018-01-06T18:25:01.620Z,6.47
2018-01-06T18:26:01.624Z,6.46
2018-01-06T18:27:55.027Z,6.28
2018-01-06T18:28:55.020Z,6.26
2018-01-06T18:30:47.902Z,6.29
2018-01-06T18:31:47.900Z,6.32
2018-01-06T18:33:40.811Z,6.28
2018-01-06T18:34:40.792Z,6.22
2018-01-06T18:36:33.683Z,5.95
2018-01-06T18:37:33.688Z,5.98
2018-01-06T18:39:27.100Z,6.00
2018-01-06T18:40:27.088Z,6.01
2018-01-06T18:42:20.491Z,5.98
2018-01-06T18:43:20.486Z,6.00
2018-01-06T18:45:13.920Z,5.96
2018-01-06T18:46:13.919Z,6.03
2018-01-06T18:48:07.356Z,5.85
2018-01-06T18:49:07.340Z,5.74
2018-01-06T18:51:00.734Z,5.88
2018-01-06T18:52:00.782Z,5.86
2018-01-06T18:53:54.140Z,5.88
2018-01-06T18:54:54.122Z,5.93
2018-01-06T18:56:47.505Z,6.07
2018-01-06T18:57:47.509Z,6.01
2018-01-06T18:59:40.916Z,5.98
2018-01-06T19:00:40.897Z,5.96
2018-01-06T19:02:34.321Z,5.95